sensor_id;sensor_type;location;lat;lon;timestamp;temperature;humidity
3067;DHT22;1544;48.834;9.194;2023-07-20T00:02:09;21.40;31.30
3067;DHT22;1544;48.834;9.194;2023-07-20T00:04:46;21.40;31.40
3067;DHT22;1544;48.834;9.194;2023-07-20T00:07:22;21.30;31.50
3067;DHT22;1544;48.834;9.194;2023-07-20T00:09:58;21.30;31.60
3067;DHT22;1544;48.834;9.194;2023-07-20T00:12:34;21.30;31.60
3067;DHT22;1544;48.834;9.194;2023-07-20T00:15:10;21.30;31.60
3067;DHT22;1544;48.834;9.194;2023-07-20T00:17:46;21.20;31.70
3067;DHT22;1544;48.834;9.194;2023-07-20T00:20:24;21.20;31.40
3067;DHT22;1544;48.834;9.194;2023-07-20T00:23:00;21.10;31.40
3067;DHT22;1544;48.834;9.194;2023-07-20T00:25:36;21.10;31.30
3067;DHT22;1544;48.834;9.194;2023-07-20T00:28:12;21.10;31.10
3067;DHT22;1544;48.834;9.194;2023-07-20T00:30:50;21.00;31.00
3067;DHT22;1544;48.834;9.194;2023-07-20T00:33:26;21.00;31.00
3067;DHT22;1544;48.834;9.194;2023-07-20T00:36:02;20.90;30.80
3067;DHT22;1544;48.834;9.194;2023-07-20T00:38:38;20.80;30.60
3067;DHT22;1544;48.834;9.194;2023-07-20T00:41:15;20.80;30.50
3067;DHT22;1544;48.834;9.194;2023-07-20T00:43:51;19.30;29.50
3067;DHT22;1544;48.834;9.194;2023-07-20T00:46:27;20.70;30.50
3067;DHT22;1544;48.834;9.194;2023-07-20T00:49:04;20.70;30.30
3067;DHT22;1544;48.834;9.194;2023-07-20T00:51:41;20.60;30.30
3067;DHT22;1544;48.834;9.194;2023-07-20T00:54:18;20.50;30.30
3067;DHT22;1544;48.834;9.194;2023-07-20T00:56:54;20.40;30.30
3067;DHT22;1544;48.834;9.194;2023-07-20T00:59:30;20.40;30.40
3067;DHT22;1544;48.834;9.194;2023-07-20T01:02:06;20.30;30.40
3067;DHT22;1544;48.834;9.194;2023-07-20T01:04:43;20.30;30.50
3067;DHT22;1544;48.834;9.194;2023-07-20T01:07:23;20.20;30.50
3067;DHT22;1544;48.834;9.194;2023-07-20T01:10:21;20.10;30.60
3067;DHT22;1544;48.834;9.194;2023-07-20T01:13:01;20.10;30.70
3067;DHT22;1544;48.834;9.194;2023-07-20T01:15:39;20.10;30.80
3067;DHT22;1544;48.834;9.194;2023-07-20T01:18:15;20.00;30.70
3067;DHT22;1544;48.834;9.194;2023-07-20T01:20:58;20.00;30.70
3067;DHT22;1544;48.834;9.194;2023-07-20T01:24:12;20.00;30.80
3067;DHT22;1544;48.834;9.194;2023-07-20T01:33:19;19.90;30.90
3067;DHT22;1544;48.834;9.194;2023-07-20T01:35:58;19.80;30.90
3067;DHT22;1544;48.834;9.194;2023-07-20T01:38:37;19.80;31.00
3067;DHT22;1544;48.834;9.194;2023-07-20T01:41:14;19.80;31.10
3067;DHT22;1544;48.834;9.194;2023-07-20T01:43:50;19.70;31.10
3067;DHT22;1544;48.834;9.194;2023-07-20T01:46:26;19.70;31.20
3067;DHT22;1544;48.834;9.194;2023-07-20T01:49:03;19.70;31.20
3067;DHT22;1544;48.834;9.194;2023-07-20T01:51:40;19.70;31.30
3067;DHT22;1544;48.834;9.194;2023-07-20T01:54:16;19.70;31.40
3067;DHT22;1544;48.834;9.194;2023-07-20T01:56:52;19.60;31.40
3067;DHT22;1544;48.834;9.194;2023-07-20T01:59:28;19.60;31.40
3067;DHT22;1544;48.834;9.194;2023-07-20T02:02:04;19.60;31.50
3067;DHT22;1544;48.834;9.194;2023-07-20T02:04:40;19.60;31.60
3067;DHT22;1544;48.834;9.194;2023-07-20T02:07:16;19.50;31.60
3067;DHT22;1544;48.834;9.194;2023-07-20T02:09:52;19.50;31.70
3067;DHT22;1544;48.834;9.194;2023-07-20T02:12:28;19.40;31.70
3067;DHT22;1544;48.834;9.194;2023-07-20T02:15:04;19.40;31.80
3067;DHT22;1544;48.834;9.194;2023-07-20T02:17:41;19.40;31.90
3067;DHT22;1544;48.834;9.194;2023-07-20T02:20:17;19.30;31.90
3067;DHT22;1544;48.834;9.194;2023-07-20T02:22:54;19.30;32.00
3067;DHT22;1544;48.834;9.194;2023-07-20T02:25:31;19.20;32.00
3067;DHT22;1544;48.834;9.194;2023-07-20T02:28:08;19.10;32.10
3067;DHT22;1544;48.834;9.194;2023-07-20T02:30:45;19.10;32.20
3067;DHT22;1544;48.834;9.194;2023-07-20T02:33:21;19.10;32.30
3067;DHT22;1544;48.834;9.194;2023-07-20T02:35:57;19.00;32.30
3067;DHT22;1544;48.834;9.194;2023-07-20T02:38:33;19.00;32.40
3067;DHT22;1544;48.834;9.194;2023-07-20T02:41:09;18.90;32.50
3067;DHT22;1544;48.834;9.194;2023-07-20T02:43:45;19.00;32.70
3067;DHT22;1544;48.834;9.194;2023-07-20T02:46:21;18.90;32.60
3067;DHT22;1544;48.834;9.194;2023-07-20T02:48:57;18.90;32.70
3067;DHT22;1544;48.834;9.194;2023-07-20T02:51:33;18.90;32.80
3067;DHT22;1544;48.834;9.194;2023-07-20T02:54:09;18.80;32.80
3067;DHT22;1544;48.834;9.194;2023-07-20T02:56:45;18.80;32.90
3067;DHT22;1544;48.834;9.194;2023-07-20T02:59:21;18.70;32.90
3067;DHT22;1544;48.834;9.194;2023-07-20T03:01:57;18.70;32.90
3067;DHT22;1544;48.834;9.194;2023-07-20T03:04:34;18.70;33.00
3067;DHT22;1544;48.834;9.194;2023-07-20T03:07:10;18.60;33.00
3067;DHT22;1544;48.834;9.194;2023-07-20T03:09:46;18.60;33.10
3067;DHT22;1544;48.834;9.194;2023-07-20T03:12:22;18.60;33.10
3067;DHT22;1544;48.834;9.194;2023-07-20T03:15:02;18.80;33.40
3067;DHT22;1544;48.834;9.194;2023-07-20T03:17:39;18.50;33.20
3067;DHT22;1544;48.834;9.194;2023-07-20T03:20:15;18.50;33.30
3067;DHT22;1544;48.834;9.194;2023-07-20T03:22:51;18.50;33.30
3067;DHT22;1544;48.834;9.194;2023-07-20T03:25:27;18.50;33.30
3067;DHT22;1544;48.834;9.194;2023-07-20T03:28:03;18.40;33.30
3067;DHT22;1544;48.834;9.194;2023-07-20T03:30:39;18.50;33.50
3067;DHT22;1544;48.834;9.194;2023-07-20T03:33:16;18.40;33.50
3067;DHT22;1544;48.834;9.194;2023-07-20T03:35:52;18.40;33.60
3067;DHT22;1544;48.834;9.194;2023-07-20T03:38:28;18.40;33.60
3067;DHT22;1544;48.834;9.194;2023-07-20T03:41:05;18.40;33.70
3067;DHT22;1544;48.834;9.194;2023-07-20T03:43:42;18.40;33.70
3067;DHT22;1544;48.834;9.194;2023-07-20T03:46:18;18.30;33.60
3067;DHT22;1544;48.834;9.194;2023-07-20T03:48:54;18.30;33.70
3067;DHT22;1544;48.834;9.194;2023-07-20T03:51:30;18.30;33.80
3067;DHT22;1544;48.834;9.194;2023-07-20T03:54:06;18.30;33.80
3067;DHT22;1544;48.834;9.194;2023-07-20T03:56:43;18.20;33.90
3067;DHT22;1544;48.834;9.194;2023-07-20T03:59:20;18.20;33.90
3067;DHT22;1544;48.834;9.194;2023-07-20T04:01:56;18.10;33.80
3067;DHT22;1544;48.834;9.194;2023-07-20T04:04:32;18.20;34.00
3067;DHT22;1544;48.834;9.194;2023-07-20T04:07:08;18.20;34.00
3067;DHT22;1544;48.834;9.194;2023-07-20T04:09:44;18.20;34.00
3067;DHT22;1544;48.834;9.194;2023-07-20T04:12:20;18.10;34.10
3067;DHT22;1544;48.834;9.194;2023-07-20T04:14:56;18.10;34.10
3067;DHT22;1544;48.834;9.194;2023-07-20T04:17:32;18.10;34.20
3067;DHT22;1544;48.834;9.194;2023-07-20T04:20:08;18.10;34.20
3067;DHT22;1544;48.834;9.194;2023-07-20T04:22:45;18.10;34.20
3067;DHT22;1544;48.834;9.194;2023-07-20T04:25:23;18.20;34.30
3067;DHT22;1544;48.834;9.194;2023-07-20T04:27:59;20.10;35.90
3067;DHT22;1544;48.834;9.194;2023-07-20T04:30:36;18.30;34.40
3067;DHT22;1544;48.834;9.194;2023-07-20T04:33:13;18.20;34.30
3067;DHT22;1544;48.834;9.194;2023-07-20T04:35:54;18.20;34.30
3067;DHT22;1544;48.834;9.194;2023-07-20T04:38:36;18.30;34.50
3067;DHT22;1544;48.834;9.194;2023-07-20T04:41:23;18.30;34.50
3067;DHT22;1544;48.834;9.194;2023-07-20T04:44:03;18.30;34.50
3067;DHT22;1544;48.834;9.194;2023-07-20T04:46:39;18.30;34.60
3067;DHT22;1544;48.834;9.194;2023-07-20T04:49:16;18.30;34.40
3067;DHT22;1544;48.834;9.194;2023-07-20T04:51:53;18.30;34.60
3067;DHT22;1544;48.834;9.194;2023-07-20T04:54:30;18.30;34.60
3067;DHT22;1544;48.834;9.194;2023-07-20T04:57:12;18.40;34.60
3067;DHT22;1544;48.834;9.194;2023-07-20T04:59:53;18.40;34.50
3067;DHT22;1544;48.834;9.194;2023-07-20T05:02:29;18.50;34.70
3067;DHT22;1544;48.834;9.194;2023-07-20T05:05:05;18.40;34.60
3067;DHT22;1544;48.834;9.194;2023-07-20T05:07:42;18.50;34.70
3067;DHT22;1544;48.834;9.194;2023-07-20T05:10:18;20.30;36.10
3067;DHT22;1544;48.834;9.194;2023-07-20T05:12:55;18.60;34.70
3067;DHT22;1544;48.834;9.194;2023-07-20T05:15:33;18.70;34.70
3067;DHT22;1544;48.834;9.194;2023-07-20T05:18:12;18.70;34.70
3067;DHT22;1544;48.834;9.194;2023-07-20T05:20:49;18.70;34.80
3067;DHT22;1544;48.834;9.194;2023-07-20T05:23:25;19.50;35.30
3067;DHT22;1544;48.834;9.194;2023-07-20T05:26:03;18.90;34.70
3067;DHT22;1544;48.834;9.194;2023-07-20T05:28:39;19.00;34.70
3067;DHT22;1544;48.834;9.194;2023-07-20T05:31:15;19.00;35.00
3067;DHT22;1544;48.834;9.194;2023-07-20T05:33:51;19.00;34.70
3067;DHT22;1544;48.834;9.194;2023-07-20T05:36:27;19.10;34.70
3067;DHT22;1544;48.834;9.194;2023-07-20T05:39:03;19.10;34.80
3067;DHT22;1544;48.834;9.194;2023-07-20T05:41:39;19.20;34.80
3067;DHT22;1544;48.834;9.194;2023-07-20T05:44:15;19.20;34.50
3067;DHT22;1544;48.834;9.194;2023-07-20T05:46:51;19.30;34.50
3067;DHT22;1544;48.834;9.194;2023-07-20T05:49:33;19.40;34.50
3067;DHT22;1544;48.834;9.194;2023-07-20T05:52:10;19.50;34.40
3067;DHT22;1544;48.834;9.194;2023-07-20T05:54:46;19.60;34.50
3067;DHT22;1544;48.834;9.194;2023-07-20T05:57:22;19.60;34.50
3067;DHT22;1544;48.834;9.194;2023-07-20T05:59:58;19.60;34.50
3067;DHT22;1544;48.834;9.194;2023-07-20T06:02:34;19.70;34.50
3067;DHT22;1544;48.834;9.194;2023-07-20T06:05:10;19.80;34.30
3067;DHT22;1544;48.834;9.194;2023-07-20T06:07:46;19.80;34.10
3067;DHT22;1544;48.834;9.194;2023-07-20T06:10:22;19.90;33.80
3067;DHT22;1544;48.834;9.194;2023-07-20T06:12:58;19.90;34.10
3067;DHT22;1544;48.834;9.194;2023-07-20T06:15:34;20.00;34.00
3067;DHT22;1544;48.834;9.194;2023-07-20T06:18:11;20.10;33.80
3067;DHT22;1544;48.834;9.194;2023-07-20T06:20:51;20.20;33.70
3067;DHT22;1544;48.834;9.194;2023-07-20T06:23:27;20.30;33.60
3067;DHT22;1544;48.834;9.194;2023-07-20T06:26:03;20.30;33.60
3067;DHT22;1544;48.834;9.194;2023-07-20T06:28:39;20.40;33.70
3067;DHT22;1544;48.834;9.194;2023-07-20T06:31:17;20.40;33.70
3067;DHT22;1544;48.834;9.194;2023-07-20T06:33:53;20.40;33.80
3067;DHT22;1544;48.834;9.194;2023-07-20T06:36:29;20.90;34.40
3067;DHT22;1544;48.834;9.194;2023-07-20T06:39:05;20.50;34.10
3067;DHT22;1544;48.834;9.194;2023-07-20T06:41:44;20.50;34.10
3067;DHT22;1544;48.834;9.194;2023-07-20T06:44:21;20.60;34.30
3067;DHT22;1544;48.834;9.194;2023-07-20T06:46:57;20.70;34.30
3067;DHT22;1544;48.834;9.194;2023-07-20T06:49:33;20.70;34.20
3067;DHT22;1544;48.834;9.194;2023-07-20T06:52:09;20.80;34.10
3067;DHT22;1544;48.834;9.194;2023-07-20T06:54:45;20.80;34.10
3067;DHT22;1544;48.834;9.194;2023-07-20T06:57:25;20.90;34.00
3067;DHT22;1544;48.834;9.194;2023-07-20T07:00:01;21.00;34.10
3067;DHT22;1544;48.834;9.194;2023-07-20T07:02:37;21.10;33.90
3067;DHT22;1544;48.834;9.194;2023-07-20T07:05:14;21.00;33.80
3067;DHT22;1544;48.834;9.194;2023-07-20T07:07:55;21.10;33.80
3067;DHT22;1544;48.834;9.194;2023-07-20T07:10:32;21.10;33.90
3067;DHT22;1544;48.834;9.194;2023-07-20T07:13:08;21.20;34.20
3067;DHT22;1544;48.834;9.194;2023-07-20T07:15:44;21.20;33.70
3067;DHT22;1544;48.834;9.194;2023-07-20T07:18:21;21.30;33.60
3067;DHT22;1544;48.834;9.194;2023-07-20T07:20:57;21.40;33.10
3067;DHT22;1544;48.834;9.194;2023-07-20T07:23:39;21.40;33.10
3067;DHT22;1544;48.834;9.194;2023-07-20T07:26:15;21.50;33.30
3067;DHT22;1544;48.834;9.194;2023-07-20T07:28:51;21.50;33.20
3067;DHT22;1544;48.834;9.194;2023-07-20T07:31:29;21.60;33.20
3067;DHT22;1544;48.834;9.194;2023-07-20T07:34:06;21.60;33.10
3067;DHT22;1544;48.834;9.194;2023-07-20T07:36:42;21.80;33.00
3067;DHT22;1544;48.834;9.194;2023-07-20T07:39:19;21.90;32.80
3067;DHT22;1544;48.834;9.194;2023-07-20T07:41:57;22.10;32.70
3067;DHT22;1544;48.834;9.194;2023-07-20T07:44:34;22.20;32.30
3067;DHT22;1544;48.834;9.194;2023-07-20T07:47:09;22.30;32.10
3067;DHT22;1544;48.834;9.194;2023-07-20T07:49:46;22.30;31.80
3067;DHT22;1544;48.834;9.194;2023-07-20T07:52:22;22.40;32.00
3067;DHT22;1544;48.834;9.194;2023-07-20T07:54:58;22.50;31.80
3067;DHT22;1544;48.834;9.194;2023-07-20T07:57:35;22.60;31.70
3067;DHT22;1544;48.834;9.194;2023-07-20T08:00:12;22.80;32.10
3067;DHT22;1544;48.834;9.194;2023-07-20T08:02:50;22.80;32.00
3067;DHT22;1544;48.834;9.194;2023-07-20T08:05:26;22.80;31.70
3067;DHT22;1544;48.834;9.194;2023-07-20T08:08:03;22.80;31.60
3067;DHT22;1544;48.834;9.194;2023-07-20T08:10:39;22.90;31.40
3067;DHT22;1544;48.834;9.194;2023-07-20T08:13:15;23.00;30.80
3067;DHT22;1544;48.834;9.194;2023-07-20T08:15:52;23.10;31.10
3067;DHT22;1544;48.834;9.194;2023-07-20T08:18:29;23.00;31.00
3067;DHT22;1544;48.834;9.194;2023-07-20T08:21:05;23.00;31.20
3067;DHT22;1544;48.834;9.194;2023-07-20T08:23:41;23.10;31.40
3067;DHT22;1544;48.834;9.194;2023-07-20T08:26:17;23.20;31.40
3067;DHT22;1544;48.834;9.194;2023-07-20T08:28:53;23.10;31.40
3067;DHT22;1544;48.834;9.194;2023-07-20T08:31:29;23.10;31.30
3067;DHT22;1544;48.834;9.194;2023-07-20T08:34:05;23.20;31.00
3067;DHT22;1544;48.834;9.194;2023-07-20T08:42:14;23.00;30.60
3067;DHT22;1544;48.834;9.194;2023-07-20T08:44:52;23.00;30.00
3067;DHT22;1544;48.834;9.194;2023-07-20T08:50:06;23.40;29.80
3067;DHT22;1544;48.834;9.194;2023-07-20T08:55:21;22.70;29.30
3067;DHT22;1544;48.834;9.194;2023-07-20T08:57:59;23.40;29.90
3067;DHT22;1544;48.834;9.194;2023-07-20T09:26:47;23.40;29.50
3067;DHT22;1544;48.834;9.194;2023-07-20T09:32:03;23.30;30.00
3067;DHT22;1544;48.834;9.194;2023-07-20T09:50:50;23.80;28.40
3067;DHT22;1544;48.834;9.194;2023-07-20T09:53:27;23.80;28.20
3067;DHT22;1544;48.834;9.194;2023-07-20T09:56:04;23.80;27.80
3067;DHT22;1544;48.834;9.194;2023-07-20T09:58:40;23.90;27.90
3067;DHT22;1544;48.834;9.194;2023-07-20T10:01:20;23.90;27.80
3067;DHT22;1544;48.834;9.194;2023-07-20T10:04:03;24.00;28.00
3067;DHT22;1544;48.834;9.194;2023-07-20T10:06:42;24.10;27.60
3067;DHT22;1544;48.834;9.194;2023-07-20T10:09:19;24.20;27.80
3067;DHT22;1544;48.834;9.194;2023-07-20T10:11:58;24.30;27.80
3067;DHT22;1544;48.834;9.194;2023-07-20T10:14:58;24.50;27.30
3067;DHT22;1544;48.834;9.194;2023-07-20T10:17:49;24.50;27.30
3067;DHT22;1544;48.834;9.194;2023-07-20T10:20:46;24.50;27.10
3067;DHT22;1544;48.834;9.194;2023-07-20T10:23:27;24.50;27.20
3067;DHT22;1544;48.834;9.194;2023-07-20T10:26:04;24.60;27.50
3067;DHT22;1544;48.834;9.194;2023-07-20T10:28:41;24.70;27.10
3067;DHT22;1544;48.834;9.194;2023-07-20T10:31:18;24.80;26.80
3067;DHT22;1544;48.834;9.194;2023-07-20T10:33:56;24.90;26.90
3067;DHT22;1544;48.834;9.194;2023-07-20T10:36:32;24.90;26.80
3067;DHT22;1544;48.834;9.194;2023-07-20T10:39:25;24.90;26.50
3067;DHT22;1544;48.834;9.194;2023-07-20T10:42:07;24.80;25.90
3067;DHT22;1544;48.834;9.194;2023-07-20T10:44:44;24.80;26.20
3067;DHT22;1544;48.834;9.194;2023-07-20T10:47:22;24.90;26.20
3067;DHT22;1544;48.834;9.194;2023-07-20T10:49:59;24.90;26.20
3067;DHT22;1544;48.834;9.194;2023-07-20T10:52:37;25.00;26.40
3067;DHT22;1544;48.834;9.194;2023-07-20T10:55:16;25.20;25.90
3067;DHT22;1544;48.834;9.194;2023-07-20T10:58:15;25.10;25.80
3067;DHT22;1544;48.834;9.194;2023-07-20T11:00:57;25.10;26.00
3067;DHT22;1544;48.834;9.194;2023-07-20T11:03:39;25.10;26.10
3067;DHT22;1544;48.834;9.194;2023-07-20T11:09:05;25.30;26.40
3067;DHT22;1544;48.834;9.194;2023-07-20T11:11:46;25.30;26.00
3067;DHT22;1544;48.834;9.194;2023-07-20T11:14:24;25.30;26.30
3067;DHT22;1544;48.834;9.194;2023-07-20T11:17:11;25.40;25.60
3067;DHT22;1544;48.834;9.194;2023-07-20T11:19:49;25.50;25.50
3067;DHT22;1544;48.834;9.194;2023-07-20T11:22:28;25.50;25.80
3067;DHT22;1544;48.834;9.194;2023-07-20T11:25:10;25.50;25.80
3067;DHT22;1544;48.834;9.194;2023-07-20T11:27:46;25.40;25.80
3067;DHT22;1544;48.834;9.194;2023-07-20T11:30:22;25.60;26.10
3067;DHT22;1544;48.834;9.194;2023-07-20T11:32:59;25.80;25.50
3067;DHT22;1544;48.834;9.194;2023-07-20T11:35:45;25.80;25.80
3067;DHT22;1544;48.834;9.194;2023-07-20T11:38:24;25.90;24.90
3067;DHT22;1544;48.834;9.194;2023-07-20T11:41:00;25.90;24.60
3067;DHT22;1544;48.834;9.194;2023-07-20T11:43:36;26.00;24.80
3067;DHT22;1544;48.834;9.194;2023-07-20T11:48:56;26.20;24.60
3067;DHT22;1544;48.834;9.194;2023-07-20T11:51:34;26.40;24.80
3067;DHT22;1544;48.834;9.194;2023-07-20T11:56:48;26.50;24.90
3067;DHT22;1544;48.834;9.194;2023-07-20T11:59:24;26.50;24.70
3067;DHT22;1544;48.834;9.194;2023-07-20T12:02:05;26.60;24.90
3067;DHT22;1544;48.834;9.194;2023-07-20T12:04:42;26.70;25.20
3067;DHT22;1544;48.834;9.194;2023-07-20T12:07:21;26.80;24.70
3067;DHT22;1544;48.834;9.194;2023-07-20T12:10:05;26.80;25.00
3067;DHT22;1544;48.834;9.194;2023-07-20T12:12:44;26.80;24.20
3067;DHT22;1544;48.834;9.194;2023-07-20T12:15:25;26.90;24.40
3067;DHT22;1544;48.834;9.194;2023-07-20T12:18:10;27.00;24.20
3067;DHT22;1544;48.834;9.194;2023-07-20T12:20:46;27.10;24.30
3067;DHT22;1544;48.834;9.194;2023-07-20T12:25:59;27.10;24.90
3067;DHT22;1544;48.834;9.194;2023-07-20T12:28:41;27.30;24.40
3067;DHT22;1544;48.834;9.194;2023-07-20T12:31:18;27.50;24.10
3067;DHT22;1544;48.834;9.194;2023-07-20T12:36:31;27.80;23.90
3067;DHT22;1544;48.834;9.194;2023-07-20T12:39:07;28.00;23.90
3067;DHT22;1544;48.834;9.194;2023-07-20T12:49:33;28.60;23.90
3067;DHT22;1544;48.834;9.194;2023-07-20T12:54:45;29.30;24.20
3067;DHT22;1544;48.834;9.194;2023-07-20T12:57:21;29.00;24.30
3067;DHT22;1544;48.834;9.194;2023-07-20T12:59:58;30.10;22.90
3067;DHT22;1544;48.834;9.194;2023-07-20T13:02:34;30.10;22.70
3067;DHT22;1544;48.834;9.194;2023-07-20T13:07:48;30.20;22.60
3067;DHT22;1544;48.834;9.194;2023-07-20T13:10:30;30.00;22.90
3067;DHT22;1544;48.834;9.194;2023-07-20T13:15:45;29.70;22.60
3067;DHT22;1544;48.834;9.194;2023-07-20T13:18:22;29.80;22.80
3067;DHT22;1544;48.834;9.194;2023-07-20T13:20:58;29.80;22.60
3067;DHT22;1544;48.834;9.194;2023-07-20T13:23:37;29.90;22.60
3067;DHT22;1544;48.834;9.194;2023-07-20T13:26:15;29.80;22.80
3067;DHT22;1544;48.834;9.194;2023-07-20T13:28:51;29.80;22.60
3067;DHT22;1544;48.834;9.194;2023-07-20T13:31:30;30.00;22.20
3067;DHT22;1544;48.834;9.194;2023-07-20T13:34:09;30.20;22.30
3067;DHT22;1544;48.834;9.194;2023-07-20T13:36:45;30.40;22.60
3067;DHT22;1544;48.834;9.194;2023-07-20T13:39:21;29.60;22.60
3067;DHT22;1544;48.834;9.194;2023-07-20T13:42:00;30.70;22.80
3067;DHT22;1544;48.834;9.194;2023-07-20T13:44:41;30.50;22.70
3067;DHT22;1544;48.834;9.194;2023-07-20T13:47:17;30.50;22.90
3067;DHT22;1544;48.834;9.194;2023-07-20T13:49:56;30.60;22.80
3067;DHT22;1544;48.834;9.194;2023-07-20T13:52:35;30.80;22.90
3067;DHT22;1544;48.834;9.194;2023-07-20T13:55:15;30.60;22.30
3067;DHT22;1544;48.834;9.194;2023-07-20T13:57:51;30.40;22.60
3067;DHT22;1544;48.834;9.194;2023-07-20T14:00:27;30.30;22.40
3067;DHT22;1544;48.834;9.194;2023-07-20T14:03:09;30.30;22.70
3067;DHT22;1544;48.834;9.194;2023-07-20T14:05:48;30.50;22.70
3067;DHT22;1544;48.834;9.194;2023-07-20T14:08:28;30.80;23.10
3067;DHT22;1544;48.834;9.194;2023-07-20T14:11:06;31.20;22.70
3067;DHT22;1544;48.834;9.194;2023-07-20T14:13:44;31.50;22.80
3067;DHT22;1544;48.834;9.194;2023-07-20T14:16:22;31.80;22.30
3067;DHT22;1544;48.834;9.194;2023-07-20T14:19:00;32.20;22.40
3067;DHT22;1544;48.834;9.194;2023-07-20T14:21:36;32.40;22.10
3067;DHT22;1544;48.834;9.194;2023-07-20T14:24:14;32.40;22.00
3067;DHT22;1544;48.834;9.194;2023-07-20T14:26:54;32.30;21.50
3067;DHT22;1544;48.834;9.194;2023-07-20T14:29:30;32.30;21.80
3067;DHT22;1544;48.834;9.194;2023-07-20T14:32:07;32.50;21.90
3067;DHT22;1544;48.834;9.194;2023-07-20T14:34:43;32.60;21.50
3067;DHT22;1544;48.834;9.194;2023-07-20T14:37:22;32.60;21.60
3067;DHT22;1544;48.834;9.194;2023-07-20T14:39:58;32.70;21.70
3067;DHT22;1544;48.834;9.194;2023-07-20T14:42:35;32.90;21.30
3067;DHT22;1544;48.834;9.194;2023-07-20T14:45:11;33.20;21.50
3067;DHT22;1544;48.834;9.194;2023-07-20T14:47:48;33.50;21.20
3067;DHT22;1544;48.834;9.194;2023-07-20T14:50:29;33.50;21.10
3067;DHT22;1544;48.834;9.194;2023-07-20T14:53:05;33.80;21.20
3067;DHT22;1544;48.834;9.194;2023-07-20T14:55:43;34.00;21.10
3067;DHT22;1544;48.834;9.194;2023-07-20T14:58:19;34.20;20.90
3067;DHT22;1544;48.834;9.194;2023-07-20T15:03:33;34.60;20.50
3067;DHT22;1544;48.834;9.194;2023-07-20T15:06:12;34.90;20.40
3067;DHT22;1544;48.834;9.194;2023-07-20T15:24:32;34.40;20.60
3067;DHT22;1544;48.834;9.194;2023-07-20T15:32:22;34.90;20.60
3067;DHT22;1544;48.834;9.194;2023-07-20T15:34:58;34.90;20.30
3067;DHT22;1544;48.834;9.194;2023-07-20T15:40:12;35.00;20.50
3067;DHT22;1544;48.834;9.194;2023-07-20T15:45:28;35.10;20.40
3067;DHT22;1544;48.834;9.194;2023-07-20T15:48:05;34.90;20.20
3067;DHT22;1544;48.834;9.194;2023-07-20T15:50:41;34.70;20.30
3067;DHT22;1544;48.834;9.194;2023-07-20T15:58:35;35.30;20.70
3067;DHT22;1544;48.834;9.194;2023-07-20T16:01:11;36.10;20.60
3067;DHT22;1544;48.834;9.194;2023-07-20T16:03:47;36.40;20.20
3067;DHT22;1544;48.834;9.194;2023-07-20T16:06:23;36.30;20.10
3067;DHT22;1544;48.834;9.194;2023-07-20T16:08:59;36.30;20.10
3067;DHT22;1544;48.834;9.194;2023-07-20T16:11:36;36.40;20.30
3067;DHT22;1544;48.834;9.194;2023-07-20T16:14:13;36.50;20.40
3067;DHT22;1544;48.834;9.194;2023-07-20T16:16:51;36.10;20.30
3067;DHT22;1544;48.834;9.194;2023-07-20T16:19:27;35.70;20.30
3067;DHT22;1544;48.834;9.194;2023-07-20T16:22:03;35.10;20.20
3067;DHT22;1544;48.834;9.194;2023-07-20T16:27:17;34.10;20.40
3067;DHT22;1544;48.834;9.194;2023-07-20T16:35:06;34.00;20.50
3067;DHT22;1544;48.834;9.194;2023-07-20T16:37:45;33.70;20.60
3067;DHT22;1544;48.834;9.194;2023-07-20T16:40:41;33.40;20.50
3067;DHT22;1544;48.834;9.194;2023-07-20T16:43:20;33.00;20.50
3067;DHT22;1544;48.834;9.194;2023-07-20T16:46:03;32.60;20.50
3067;DHT22;1544;48.834;9.194;2023-07-20T16:48:43;32.20;20.60
3067;DHT22;1544;48.834;9.194;2023-07-20T16:51:22;31.70;20.80
3067;DHT22;1544;48.834;9.194;2023-07-20T16:53:58;31.40;21.00
3067;DHT22;1544;48.834;9.194;2023-07-20T16:59:11;30.90;21.20
3067;DHT22;1544;48.834;9.194;2023-07-20T17:01:47;30.70;21.20
3067;DHT22;1544;48.834;9.194;2023-07-20T17:04:23;33.30;22.60
3067;DHT22;1544;48.834;9.194;2023-07-20T17:06:59;30.40;21.30
3067;DHT22;1544;48.834;9.194;2023-07-20T17:09:35;30.30;21.30
3067;DHT22;1544;48.834;9.194;2023-07-20T17:12:12;30.20;21.40
3067;DHT22;1544;48.834;9.194;2023-07-20T17:20:02;30.00;21.40
3067;DHT22;1544;48.834;9.194;2023-07-20T17:28:00;29.60;21.70
3067;DHT22;1544;48.834;9.194;2023-07-20T17:30:39;29.40;21.60
3067;DHT22;1544;48.834;9.194;2023-07-20T17:43:43;28.70;21.80
3067;DHT22;1544;48.834;9.194;2023-07-20T17:46:19;28.50;21.90
3067;DHT22;1544;48.834;9.194;2023-07-20T17:48:58;28.40;22.00
3067;DHT22;1544;48.834;9.194;2023-07-20T17:51:35;28.20;22.10
3067;DHT22;1544;48.834;9.194;2023-07-20T17:54:11;28.00;22.20
3067;DHT22;1544;48.834;9.194;2023-07-20T17:59:23;27.60;22.30
3067;DHT22;1544;48.834;9.194;2023-07-20T18:01:59;27.40;22.40
3067;DHT22;1544;48.834;9.194;2023-07-20T18:04:35;27.30;22.60
3067;DHT22;1544;48.834;9.194;2023-07-20T18:09:47;27.00;22.60
3067;DHT22;1544;48.834;9.194;2023-07-20T18:12:24;26.90;22.70
3067;DHT22;1544;48.834;9.194;2023-07-20T18:15:00;26.90;23.00
3067;DHT22;1544;48.834;9.194;2023-07-20T18:17:38;26.70;22.90
3067;DHT22;1544;48.834;9.194;2023-07-20T18:20:14;26.60;23.00
3067;DHT22;1544;48.834;9.194;2023-07-20T18:25:27;26.50;23.00
3067;DHT22;1544;48.834;9.194;2023-07-20T18:28:05;26.30;23.20
3067;DHT22;1544;48.834;9.194;2023-07-20T18:30:42;26.20;23.30
3067;DHT22;1544;48.834;9.194;2023-07-20T18:33:18;26.00;23.40
3067;DHT22;1544;48.834;9.194;2023-07-20T18:35:54;25.90;23.50
3067;DHT22;1544;48.834;9.194;2023-07-20T18:38:30;25.90;23.60
3067;DHT22;1544;48.834;9.194;2023-07-20T18:41:07;25.80;23.70
3067;DHT22;1544;48.834;9.194;2023-07-20T18:46:19;25.60;23.80
3067;DHT22;1544;48.834;9.194;2023-07-20T18:48:55;25.60;24.00
3067;DHT22;1544;48.834;9.194;2023-07-20T18:51:31;25.40;23.80
3067;DHT22;1544;48.834;9.194;2023-07-20T18:54:07;25.30;23.90
3067;DHT22;1544;48.834;9.194;2023-07-20T18:56:43;25.30;24.10
3067;DHT22;1544;48.834;9.194;2023-07-20T19:04:32;25.10;24.00
3067;DHT22;1544;48.834;9.194;2023-07-20T19:07:08;25.00;24.00
3067;DHT22;1544;48.834;9.194;2023-07-20T19:09:44;25.00;24.00
3067;DHT22;1544;48.834;9.194;2023-07-20T19:12:20;24.90;23.90
3067;DHT22;1544;48.834;9.194;2023-07-20T19:14:56;25.00;24.00
3067;DHT22;1544;48.834;9.194;2023-07-20T19:17:32;24.90;24.10
3067;DHT22;1544;48.834;9.194;2023-07-20T19:20:08;24.80;24.10
3067;DHT22;1544;48.834;9.194;2023-07-20T19:22:50;24.90;24.20
3067;DHT22;1544;48.834;9.194;2023-07-20T19:28:03;24.70;24.30
3067;DHT22;1544;48.834;9.194;2023-07-20T19:30:39;24.70;24.20
3067;DHT22;1544;48.834;9.194;2023-07-20T19:33:16;24.70;24.20
3067;DHT22;1544;48.834;9.194;2023-07-20T19:35:52;24.70;24.30
3067;DHT22;1544;48.834;9.194;2023-07-20T19:38:29;24.60;24.30
3067;DHT22;1544;48.834;9.194;2023-07-20T19:41:05;24.50;24.30
3067;DHT22;1544;48.834;9.194;2023-07-20T19:43:41;24.50;24.40
3067;DHT22;1544;48.834;9.194;2023-07-20T19:46:19;24.50;24.50
3067;DHT22;1544;48.834;9.194;2023-07-20T19:48:55;24.40;24.40
3067;DHT22;1544;48.834;9.194;2023-07-20T19:51:32;24.40;24.50
3067;DHT22;1544;48.834;9.194;2023-07-20T19:54:08;24.30;24.50
3067;DHT22;1544;48.834;9.194;2023-07-20T19:56:47;24.30;24.40
3067;DHT22;1544;48.834;9.194;2023-07-20T19:59:23;24.30;24.70
3067;DHT22;1544;48.834;9.194;2023-07-20T20:01:59;24.30;24.60
3067;DHT22;1544;48.834;9.194;2023-07-20T20:04:35;24.30;24.80